Time;durP1;ratioP1;P1;durP2;ratioP2;P2;SDS_P1;SDS_P2;PMS_P1;PMS_P2;Temp;Humidity;BMP_temperature;BMP_pressure;BME280_temperature;BME280_humidity;BME280_pressure;Samples;Min_cycle;Max_cycle;Signal;HPM_P1;HPM_P2
2023/09/06 00:00:33;;;;;;;5.33;3.20;;;16.30;99.90;;;;;;5033562;28;20472;-78
2023/09/06 00:03:19;;;;;;;8.03;3.17;;;16.10;99.90;;;;;;5030971;28;20536;-77
2023/09/06 00:06:05;;;;;;;5.70;3.20;;;16.10;99.90;;;;;;5032103;28;20451;-76
2023/09/06 00:08:51;;;;;;;19.23;5.70;;;16.00;99.90;;;;;;5031847;28;20483;-76
2023/09/06 00:11:39;;;;;;;5.50;3.50;;;16.10;99.90;;;;;;5028702;28;20433;-76
2023/09/06 00:14:29;;;;;;;6.73;3.33;;;16.10;99.90;;;;;;5029669;28;20534;-76
2023/09/06 00:17:15;;;;;;;4.60;3.50;;;16.20;99.90;;;;;;5029652;28;20476;-78
2023/09/06 00:20:01;;;;;;;5.47;3.17;;;16.20;99.90;;;;;;5034056;28;20526;-76
2023/09/06 00:22:48;;;;;;;5.23;3.13;;;16.20;99.90;;;;;;5051148;22;20565;-72
2023/09/06 00:25:34;;;;;;;4.83;3.20;;;16.10;99.90;;;;;;5014248;28;20435;-73
2023/09/06 00:28:23;;;;;;;6.03;3.13;;;16.00;99.90;;;;;;5029034;28;20467;-73
2023/09/06 00:31:09;;;;;;;6.83;3.43;;;16.10;99.90;;;;;;5031213;28;20437;-75
2023/09/06 00:33:55;;;;;;;5.73;3.30;;;16.10;99.90;;;;;;5015934;28;20532;-72
2023/09/06 00:36:41;;;;;;;4.47;3.37;;;16.00;99.90;;;;;;5003230;28;20577;-71
2023/09/06 00:39:30;;;;;;;6.83;3.00;;;15.90;99.90;;;;;;5011104;28;20447;-72
2023/09/06 00:42:15;;;;;;;8.13;3.80;;;15.90;99.90;;;;;;5006446;28;20441;-72
2023/09/06 00:45:02;;;;;;;11.30;3.70;;;15.80;99.90;;;;;;5009065;28;20817;-73
2023/09/06 00:47:48;;;;;;;11.60;3.10;;;15.80;99.90;;;;;;5009690;28;20814;-72
2023/09/06 00:50:36;;;;;;;9.07;3.50;;;15.70;99.90;;;;;;5010024;28;20442;-73
2023/09/06 00:53:23;;;;;;;5.67;3.63;;;15.70;99.90;;;;;;5009459;28;20464;-72
2023/09/06 00:56:09;;;;;;;8.40;3.83;;;15.70;99.90;;;;;;5007100;28;20517;-74
2023/09/06 00:58:55;;;;;;;4.30;3.10;;;15.70;99.90;;;;;;5008791;28;21006;-73
2023/09/06 01:01:42;;;;;;;7.70;3.57;;;15.60;99.90;;;;;;5005881;28;20453;-73
2023/09/06 01:04:28;;;;;;;4.17;3.40;;;15.60;99.90;;;;;;5003344;28;20481;-73
2023/09/06 01:07:14;;;;;;;4.33;3.47;;;15.60;99.90;;;;;;5002070;28;20481;-73
2023/09/06 01:10:00;;;;;;;4.13;2.97;;;15.80;99.90;;;;;;5000281;28;20500;-75
2023/09/06 01:12:47;;;;;;;5.40;3.40;;;15.70;99.90;;;;;;5005049;28;20782;-73
2023/09/06 01:15:33;;;;;;;7.40;3.00;;;15.70;99.90;;;;;;5004891;28;20429;-73
2023/09/06 01:18:21;;;;;;;6.17;3.67;;;15.70;99.90;;;;;;5003318;28;20446;-73
2023/09/06 01:21:13;;;;;;;5.97;3.57;;;15.70;99.90;;;;;;5002431;28;22059;-73
2023/09/06 01:24:02;;;;;;;5.93;3.60;;;15.60;99.90;;;;;;5004201;28;20619;-73
2023/09/06 01:26:48;;;;;;;4.57;3.60;;;15.40;99.90;;;;;;4997479;28;20520;-73
2023/09/06 01:29:35;;;;;;;7.70;4.33;;;15.50;99.90;;;;;;5002862;28;20805;-73
2023/09/06 01:32:21;;;;;;;4.57;3.47;;;15.30;99.90;;;;;;5002562;28;21106;-74
2023/09/06 01:35:10;;;;;;;12.73;3.70;;;15.40;99.90;;;;;;5003726;28;20532;-76
2023/09/06 01:37:56;;;;;;;7.00;3.70;;;15.40;99.90;;;;;;5002847;28;20506;-73
2023/09/06 01:40:44;;;;;;;6.80;3.70;;;15.40;99.90;;;;;;5006230;28;20506;-74
2023/09/06 01:43:31;;;;;;;6.43;3.73;;;15.30;99.90;;;;;;5000096;28;20471;-73
2023/09/06 01:46:16;;;;;;;12.23;4.50;;;15.20;99.90;;;;;;5002060;28;20492;-73
2023/09/06 01:49:02;;;;;;;6.20;4.40;;;15.10;99.90;;;;;;4996630;28;20522;-74
2023/09/06 01:51:48;;;;;;;4.43;3.27;;;15.20;99.90;;;;;;4996571;28;20446;-76
2023/09/06 01:54:34;;;;;;;5.40;3.67;;;15.20;99.90;;;;;;5001311;28;20985;-73
2023/09/06 01:57:21;;;;;;;6.53;4.20;;;15.10;99.90;;;;;;5003504;28;20524;-76
2023/09/06 02:00:19;;;;;;;6.30;3.40;;;15.10;99.90;;;;;;5000953;28;20446;-73
2023/09/06 02:03:06;;;;;;;8.20;3.83;;;15.00;99.90;;;;;;5002363;28;20641;-75
2023/09/06 02:05:52;;;;;;;5.53;3.83;;;15.10;99.90;;;;;;5006157;28;21142;-73
2023/09/06 02:08:39;;;;;;;7.47;3.73;;;15.10;99.90;;;;;;5002998;28;20446;-73
2023/09/06 02:11:25;;;;;;;8.83;4.30;;;15.20;99.90;;;;;;5002664;28;20424;-73
2023/09/06 02:14:12;;;;;;;5.53;3.70;;;15.10;99.90;;;;;;5001250;28;20440;-74
2023/09/06 02:16:57;;;;;;;6.33;3.80;;;15.20;99.90;;;;;;4998640;28;20569;-74
2023/09/06 02:19:43;;;;;;;7.60;4.13;;;14.90;99.90;;;;;;4996511;28;20443;-73
2023/09/06 02:22:29;;;;;;;6.47;4.30;;;14.90;99.90;;;;;;5000714;28;20429;-76
2023/09/06 02:25:16;;;;;;;7.60;4.33;;;14.80;99.90;;;;;;5001864;28;20948;-72
2023/09/06 02:28:04;;;;;;;5.67;4.47;;;14.80;99.90;;;;;;4996525;28;20803;-73
2023/09/06 02:30:50;;;;;;;7.37;3.80;;;14.90;99.90;;;;;;4998411;28;20425;-74
2023/09/06 02:33:36;;;;;;;7.67;4.43;;;14.80;99.90;;;;;;5001495;28;20458;-77
2023/09/06 02:36:22;;;;;;;11.00;5.07;;;14.70;99.90;;;;;;4999552;28;20450;-73
2023/09/06 02:39:07;;;;;;;5.07;3.33;;;14.80;99.90;;;;;;4998266;28;20950;-73
2023/09/06 02:41:53;;;;;;;7.07;4.03;;;14.80;99.90;;;;;;4999127;28;20582;-73
2023/09/06 02:44:39;;;;;;;5.13;3.90;;;14.80;99.90;;;;;;4998754;28;20835;-74
2023/09/06 02:47:28;;;;;;;6.70;4.70;;;14.80;99.90;;;;;;4999607;28;20454;-75
2023/09/06 02:50:14;;;;;;;9.13;4.50;;;14.80;99.90;;;;;;4998129;28;20957;-74
2023/09/06 02:53:01;;;;;;;5.40;4.10;;;14.80;99.90;;;;;;4996493;28;20499;-75
2023/09/06 02:55:48;;;;;;;6.63;4.17;;;14.70;99.90;;;;;;5003282;28;20429;-76
2023/09/06 02:58:37;;;;;;;5.50;4.13;;;14.80;99.90;;;;;;4997468;28;20465;-76
2023/09/06 03:01:22;;;;;;;6.80;3.50;;;14.90;99.90;;;;;;4995382;28;20451;-73
2023/09/06 03:04:09;;;;;;;12.60;4.30;;;14.90;99.90;;;;;;4994953;28;20486;-73
2023/09/06 03:06:57;;;;;;;5.30;3.80;;;14.90;99.90;;;;;;4998896;28;21333;-73
2023/09/06 03:09:44;;;;;;;5.70;4.00;;;14.90;99.90;;;;;;4999257;28;20994;-73
2023/09/06 03:12:30;;;;;;;5.43;3.77;;;14.70;99.90;;;;;;5000452;28;20523;-73
2023/09/06 03:15:16;;;;;;;4.97;4.00;;;14.70;99.90;;;;;;4999699;28;21045;-73
2023/09/06 03:18:02;;;;;;;5.50;4.07;;;14.70;99.90;;;;;;5003674;28;20592;-73
2023/09/06 03:20:55;;;;;;;12.73;4.33;;;14.60;99.90;;;;;;5002787;28;20423;-73
2023/09/06 03:23:44;;;;;;;7.93;4.43;;;14.60;99.90;;;;;;5002432;28;21351;-74
2023/09/06 03:26:29;;;;;;;9.13;3.90;;;14.50;99.90;;;;;;5004953;28;20519;-75
2023/09/06 03:29:17;;;;;;;5.63;3.83;;;14.40;99.90;;;;;;5002384;28;20453;-73
2023/09/06 03:32:04;;;;;;;7.30;4.60;;;14.30;99.90;;;;;;5004260;28;20859;-73
2023/09/06 03:34:51;;;;;;;6.70;4.10;;;14.30;99.90;;;;;;5001578;28;21039;-76
2023/09/06 03:37:41;;;;;;;9.20;3.47;;;14.30;99.90;;;;;;5004839;28;21020;-73
2023/09/06 03:40:34;;;;;;;5.50;3.63;;;14.30;99.90;;;;;;5002918;28;20440;-74
2023/09/06 03:43:29;;;;;;;6.93;3.50;;;14.30;99.90;;;;;;4998282;28;20467;-75
2023/09/06 03:46:16;;;;;;;6.07;3.30;;;14.40;99.90;;;;;;4999897;28;20589;-73
2023/09/06 03:49:05;;;;;;;6.30;4.60;;;14.30;99.90;;;;;;4999866;28;20445;-74
2023/09/06 03:51:51;;;;;;;6.97;4.70;;;14.30;99.90;;;;;;5003059;28;20445;-73
2023/09/06 03:54:38;;;;;;;5.80;4.10;;;14.30;99.90;;;;;;4999450;28;20459;-76
2023/09/06 03:57:24;;;;;;;8.77;4.67;;;14.30;99.90;;;;;;5002516;28;20975;-74
2023/09/06 04:00:24;;;;;;;7.90;4.83;;;14.30;99.90;;;;;;5000164;28;20515;-73
2023/09/06 04:03:10;;;;;;;7.10;4.90;;;14.30;99.90;;;;;;5004955;28;20474;-73
2023/09/06 04:05:57;;;;;;;5.73;3.90;;;14.30;99.90;;;;;;5002044;28;20531;-73
2023/09/06 04:08:43;;;;;;;8.60;5.17;;;14.40;99.90;;;;;;5004477;28;20699;-74
2023/09/06 04:11:30;;;;;;;8.50;4.60;;;14.30;99.90;;;;;;5000914;28;21187;-73
2023/09/06 04:14:15;;;;;;;12.13;5.10;;;14.40;99.90;;;;;;4999314;28;20544;-73
2023/09/06 04:17:01;;;;;;;5.53;4.00;;;14.20;99.90;;;;;;5008024;28;20517;-75
2023/09/06 04:19:46;;;;;;;5.43;4.60;;;14.30;99.90;;;;;;4999550;28;21042;-76
2023/09/06 04:22:33;;;;;;;5.70;4.40;;;14.20;99.90;;;;;;5005392;28;20560;-73
2023/09/06 04:25:22;;;;;;;10.43;4.53;;;14.10;99.90;;;;;;5002893;28;20486;-74
2023/09/06 04:28:10;;;;;;;7.70;4.20;;;14.00;99.90;;;;;;5006670;28;20425;-74
2023/09/06 04:30:57;;;;;;;5.03;3.40;;;14.10;99.90;;;;;;5006091;28;20429;-73
2023/09/06 04:33:43;;;;;;;9.30;4.80;;;14.10;99.90;;;;;;4999700;28;20457;-73
2023/09/06 04:36:29;;;;;;;5.30;4.53;;;14.20;99.90;;;;;;5000440;28;20450;-76
2023/09/06 04:39:17;;;;;;;7.50;5.10;;;14.20;99.90;;;;;;5002574;28;20447;-73
2023/09/06 04:42:02;;;;;;;5.50;4.53;;;14.00;99.90;;;;;;5001103;28;20530;-74
2023/09/06 04:44:50;;;;;;;8.50;5.07;;;14.00;99.90;;;;;;5002636;28;20553;-73
2023/09/06 04:47:36;;;;;;;7.57;4.50;;;13.90;99.90;;;;;;5006333;28;20597;-75
2023/09/06 04:50:21;;;;;;;8.87;5.10;;;13.70;99.90;;;;;;5002958;28;20928;-73
2023/09/06 04:53:08;;;;;;;9.93;4.70;;;13.80;99.90;;;;;;5004538;28;20464;-73
2023/09/06 04:55:54;;;;;;;5.83;3.57;;;13.90;99.90;;;;;;5001217;28;20450;-73
2023/09/06 04:58:39;;;;;;;7.23;4.70;;;13.80;99.90;;;;;;5000165;28;20951;-73
2023/09/06 05:01:26;;;;;;;9.73;5.03;;;13.70;99.90;;;;;;5003027;28;20817;-72
2023/09/06 05:04:12;;;;;;;8.57;4.83;;;13.70;99.90;;;;;;5002513;28;20473;-73
2023/09/06 05:06:58;;;;;;;8.37;4.63;;;13.70;99.90;;;;;;5003656;28;20419;-73
2023/09/06 05:09:45;;;;;;;6.07;4.40;;;13.70;99.90;;;;;;5003183;28;21620;-72
2023/09/06 05:12:30;;;;;;;9.67;5.30;;;13.80;99.90;;;;;;5005889;28;20436;-73
2023/09/06 05:15:16;;;;;;;7.30;4.50;;;13.70;99.90;;;;;;5004441;28;20453;-74
2023/09/06 05:18:04;;;;;;;6.83;4.97;;;13.70;99.90;;;;;;5003606;28;20720;-75
2023/09/06 05:20:50;;;;;;;6.17;4.57;;;13.70;99.90;;;;;;5001654;28;20512;-72
2023/09/06 05:23:37;;;;;;;8.57;5.20;;;13.70;99.90;;;;;;5001151;28;20484;-73
2023/09/06 05:26:22;;;;;;;7.00;4.50;;;13.80;99.90;;;;;;5001899;28;20441;-74
2023/09/06 05:29:08;;;;;;;8.83;4.90;;;13.70;99.90;;;;;;5001774;28;20533;-73
2023/09/06 05:31:54;;;;;;;7.43;5.00;;;13.80;99.90;;;;;;5004501;28;20436;-73
2023/09/06 05:34:41;;;;;;;6.20;5.00;;;13.80;99.90;;;;;;5000691;28;20457;-73
2023/09/06 05:37:26;;;;;;;6.33;4.10;;;13.90;99.90;;;;;;5001736;28;20427;-73
2023/09/06 05:40:13;;;;;;;7.20;5.10;;;13.90;99.90;;;;;;5004930;28;20441;-72
2023/09/06 05:42:59;;;;;;;7.53;4.00;;;14.00;99.90;;;;;;5002616;28;20996;-75
2023/09/06 05:45:44;;;;;;;8.20;4.73;;;14.10;99.90;;;;;;5004971;28;20477;-72
2023/09/06 05:48:30;;;;;;;8.70;4.33;;;14.20;99.90;;;;;;5005280;28;20897;-73
2023/09/06 05:51:17;;;;;;;6.20;4.27;;;14.30;99.90;;;;;;5000176;28;20973;-77
2023/09/06 05:54:02;;;;;;;6.27;4.10;;;14.50;99.90;;;;;;5002512;28;20535;-73
2023/09/06 05:56:48;;;;;;;5.70;4.90;;;14.60;99.90;;;;;;5003090;28;20445;-74
2023/09/06 05:59:33;;;;;;;10.10;4.63;;;14.60;99.90;;;;;;4999463;28;20471;-74
2023/09/06 06:02:19;;;;;;;4.63;4.13;;;14.60;99.90;;;;;;5001450;28;20445;-77
2023/09/06 06:05:06;;;;;;;9.70;4.60;;;14.60;99.90;;;;;;5002057;28;20474;-73
2023/09/06 06:07:53;;;;;;;11.37;4.70;;;14.80;99.90;;;;;;5006410;28;20466;-74
2023/09/06 06:10:39;;;;;;;8.27;5.60;;;14.80;99.90;;;;;;5004037;28;20481;-74
2023/09/06 06:13:24;;;;;;;6.07;4.63;;;14.80;99.90;;;;;;5002199;28;20445;-74
2023/09/06 06:16:11;;;;;;;5.27;3.70;;;14.80;99.90;;;;;;5001117;28;20439;-73
2023/09/06 06:18:57;;;;;;;6.87;5.50;;;14.90;99.90;;;;;;5003341;28;20529;-74
2023/09/06 06:21:43;;;;;;;7.53;5.07;;;15.00;99.90;;;;;;5002488;28;20796;-74
2023/09/06 06:24:31;;;;;;;5.23;4.30;;;15.10;99.90;;;;;;5024802;22;20504;-76
2023/09/06 06:27:16;;;;;;;6.90;5.00;;;15.20;99.90;;;;;;5003864;28;20447;-76
2023/09/06 06:30:05;;;;;;;7.57;4.80;;;15.30;99.90;;;;;;4998890;28;20965;-77
2023/09/06 06:32:51;;;;;;;6.50;4.80;;;15.40;99.90;;;;;;4996555;28;21105;-75
2023/09/06 06:35:37;;;;;;;6.23;4.73;;;15.50;99.90;;;;;;4995774;28;20974;-76
2023/09/06 06:38:22;;;;;;;6.10;4.90;;;15.60;99.90;;;;;;4992856;28;20603;-76
2023/09/06 06:41:20;;;;;;;7.50;5.00;;;15.70;99.90;;;;;;4993020;28;20414;-74
2023/09/06 06:44:06;;;;;;;5.00;4.20;;;15.80;99.90;;;;;;4998009;28;20469;-75
2023/09/06 06:46:51;;;;;;;7.47;5.50;;;15.90;99.90;;;;;;4997494;28;20447;-75
2023/09/06 06:49:37;;;;;;;6.73;4.57;;;16.00;99.90;;;;;;4999581;28;20468;-75
2023/09/06 06:52:23;;;;;;;6.90;4.90;;;16.10;99.90;;;;;;4996679;28;20446;-77
2023/09/06 06:55:09;;;;;;;6.70;4.60;;;16.30;99.90;;;;;;4991379;28;20493;-75
2023/09/06 06:57:57;;;;;;;6.63;3.97;;;16.30;99.90;;;;;;4993143;28;20463;-76
2023/09/06 07:00:42;;;;;;;6.23;4.50;;;16.50;99.90;;;;;;4993462;28;20543;-75
2023/09/06 07:03:29;;;;;;;6.53;4.67;;;16.50;99.90;;;;;;4994672;28;20486;-75
2023/09/06 07:06:14;;;;;;;12.57;5.00;;;16.80;99.90;;;;;;4998426;28;20523;-76
2023/09/06 07:09:03;;;;;;;7.60;4.77;;;16.90;99.90;;;;;;4997049;28;20445;-75
2023/09/06 07:11:49;;;;;;;14.10;4.77;;;17.10;99.90;;;;;;5001742;28;20522;-75
2023/09/06 07:14:37;;;;;;;10.00;4.93;;;17.20;99.90;;;;;;4993502;28;20479;-76
2023/09/06 07:17:22;;;;;;;9.03;4.10;;;17.30;99.90;;;;;;4989818;28;20562;-76
2023/09/06 07:20:10;;;;;;;9.10;4.90;;;17.40;99.90;;;;;;4995309;28;20592;-76
2023/09/06 07:22:55;;;;;;;8.77;5.20;;;17.60;99.90;;;;;;4996122;28;21008;-76
2023/09/06 07:25:46;;;;;;;9.07;5.30;;;17.70;99.90;;;;;;4996964;28;20842;-76
2023/09/06 07:28:39;;;;;;;11.60;5.40;;;17.80;99.90;;;;;;4992079;28;20506;-77
2023/09/06 07:31:26;;;;;;;8.20;4.40;;;17.90;99.90;;;;;;4993440;28;20451;-75
2023/09/06 07:34:11;;;;;;;5.70;4.67;;;18.00;99.90;;;;;;4994880;28;20487;-75
2023/09/06 07:36:57;;;;;;;7.70;5.20;;;18.10;99.90;;;;;;4996002;28;20435;-75
2023/09/06 07:39:42;;;;;;;7.50;5.23;;;18.30;99.90;;;;;;4996435;28;20448;-77
2023/09/06 07:42:28;;;;;;;8.30;5.27;;;18.40;99.90;;;;;;4998113;28;20448;-77
2023/09/06 07:45:14;;;;;;;9.13;6.00;;;18.70;99.90;;;;;;4996297;28;21122;-75
2023/09/06 07:48:03;;;;;;;7.03;5.27;;;18.70;99.90;;;;;;4993793;28;20588;-77
2023/09/06 07:50:50;;;;;;;8.53;4.90;;;18.90;99.90;;;;;;5002545;28;20443;-76
2023/09/06 07:53:36;;;;;;;5.27;4.33;;;19.00;99.90;;;;;;5002233;28;20458;-75
2023/09/06 07:56:21;;;;;;;6.37;4.20;;;19.20;99.90;;;;;;5002987;28;20820;-75
2023/09/06 07:59:10;;;;;;;6.80;4.73;;;19.30;99.90;;;;;;4996923;28;21218;-75
2023/09/06 08:01:56;;;;;;;7.43;4.77;;;19.30;99.90;;;;;;5001751;28;20599;-75
2023/09/06 08:04:43;;;;;;;6.40;4.80;;;19.50;99.90;;;;;;4996902;28;20538;-75
2023/09/06 08:07:29;;;;;;;5.67;4.80;;;19.70;99.90;;;;;;5003409;28;20565;-75
2023/09/06 08:10:14;;;;;;;6.23;5.00;;;19.80;99.90;;;;;;5002267;28;20510;-74
2023/09/06 08:13:00;;;;;;;7.00;4.53;;;19.90;99.90;;;;;;4998114;28;20475;-75
2023/09/06 08:15:47;;;;;;;7.60;5.10;;;20.10;99.90;;;;;;5000716;28;20585;-75
2023/09/06 08:18:32;;;;;;;7.90;4.53;;;20.20;99.90;;;;;;4998773;28;20452;-74
2023/09/06 08:21:20;;;;;;;5.57;4.53;;;20.30;99.90;;;;;;4997086;28;20436;-74
2023/09/06 08:24:05;;;;;;;6.43;4.17;;;20.40;99.90;;;;;;4999835;28;20477;-75
2023/09/06 08:26:51;;;;;;;6.37;4.63;;;20.50;99.90;;;;;;5000256;28;20480;-75
2023/09/06 08:29:37;;;;;;;11.43;5.07;;;20.60;99.90;;;;;;5001469;28;20939;-75
2023/09/06 08:32:23;;;;;;;6.23;4.33;;;20.70;99.90;;;;;;5002650;28;20734;-75
2023/09/06 08:35:11;;;;;;;6.93;4.67;;;20.80;99.90;;;;;;4994287;28;20462;-75
2023/09/06 08:37:59;;;;;;;8.53;4.43;;;20.90;99.90;;;;;;5000895;28;20417;-76
2023/09/06 08:40:44;;;;;;;6.50;4.80;;;21.00;99.90;;;;;;5000481;28;20453;-74
2023/09/06 08:43:36;;;;;;;7.53;5.03;;;21.10;99.90;;;;;;4995583;28;20528;-75
2023/09/06 08:46:28;;;;;;;9.27;4.60;;;21.20;99.90;;;;;;4998262;28;20562;-75
2023/09/06 08:49:15;;;;;;;5.20;4.10;;;21.30;99.90;;;;;;4996571;28;20493;-75
2023/09/06 08:52:02;;;;;;;7.70;4.53;;;21.40;99.90;;;;;;4993324;28;20477;-75
2023/09/06 08:54:50;;;;;;;5.97;4.23;;;21.60;99.90;;;;;;4995164;28;20470;-74
2023/09/06 08:57:36;;;;;;;7.87;5.03;;;21.80;99.90;;;;;;4998392;28;20576;-75
2023/09/06 09:00:23;;;;;;;6.27;5.27;;;21.90;99.90;;;;;;4996478;28;20499;-75
2023/09/06 09:03:09;;;;;;;7.23;4.07;;;22.00;99.90;;;;;;4995801;28;20699;-74
2023/09/06 09:05:59;;;;;;;9.63;4.90;;;22.10;99.90;;;;;;4992756;28;20486;-74
2023/09/06 09:08:45;;;;;;;7.50;4.80;;;22.20;93.10;;;;;;4992878;28;21022;-75
2023/09/06 09:11:32;;;;;;;5.50;5.00;;;22.30;96.50;;;;;;4997423;28;20973;-75
2023/09/06 09:14:22;;;;;;;7.40;5.03;;;22.30;92.70;;;;;;4986921;28;20773;-75
2023/09/06 09:17:07;;;;;;;6.57;4.73;;;22.50;93.50;;;;;;4993011;28;20442;-76
2023/09/06 09:19:54;;;;;;;5.00;4.17;;;22.60;91.40;;;;;;5000688;28;20589;-76
2023/09/06 09:22:40;;;;;;;10.43;4.40;;;22.70;93.30;;;;;;5003135;28;20442;-76
2023/09/06 09:25:26;;;;;;;4.70;3.90;;;22.80;88.60;;;;;;5000141;28;20473;-76
2023/09/06 09:28:14;;;;;;;5.77;4.03;;;22.90;83.80;;;;;;5002062;28;20439;-77
2023/09/06 09:31:00;;;;;;;5.40;4.30;;;23.00;85.00;;;;;;5004018;28;20509;-77
2023/09/06 09:33:51;;;;;;;6.30;4.40;;;23.10;82.30;;;;;;4997167;28;20553;-76
2023/09/06 09:36:39;;;;;;;7.00;4.07;;;23.20;86.50;;;;;;4999582;28;20447;-77
2023/09/06 09:39:26;;;;;;;5.50;4.13;;;23.30;77.30;;;;;;4998533;28;20451;-76
2023/09/06 09:42:12;;;;;;;4.70;4.20;;;23.40;78.40;;;;;;4999429;28;20425;-76
2023/09/06 09:45:03;;;;;;;4.97;3.90;;;23.50;79.70;;;;;;5003324;28;20533;-76
2023/09/06 09:47:49;;;;;;;5.60;4.20;;;23.60;81.00;;;;;;4997495;28;20460;-75
2023/09/06 09:50:36;;;;;;;7.83;4.33;;;23.70;70.80;;;;;;4999133;28;20448;-76
2023/09/06 09:53:23;;;;;;;5.33;4.10;;;23.90;68.10;;;;;;4996807;28;20956;-76
2023/09/06 09:56:09;;;;;;;6.60;4.10;;;23.90;68.10;;;;;;5001025;28;20444;-76
2023/09/06 09:58:56;;;;;;;7.17;4.17;;;24.10;68.30;;;;;;5001755;28;20463;-75
2023/09/06 10:01:44;;;;;;;9.40;4.10;;;24.10;66.20;;;;;;5003222;28;20455;-76
2023/09/06 10:04:32;;;;;;;8.67;4.00;;;24.20;67.20;;;;;;5001582;28;20825;-77
2023/09/06 10:07:20;;;;;;;7.53;4.97;;;24.30;60.70;;;;;;5005216;28;20859;-77
2023/09/06 10:10:06;;;;;;;6.13;3.67;;;24.40;59.00;;;;;;5001600;28;20459;-76
2023/09/06 10:12:54;;;;;;;5.50;4.37;;;24.50;58.10;;;;;;5001149;28;20452;-78
2023/09/06 10:15:39;;;;;;;7.30;4.43;;;24.50;62.90;;;;;;4996500;28;20487;-75
2023/09/06 10:18:26;;;;;;;5.80;4.20;;;24.70;55.80;;;;;;4999668;28;21109;-76
2023/09/06 10:21:13;;;;;;;6.50;4.20;;;24.80;56.60;;;;;;4998984;28;20793;-77
2023/09/06 10:24:00;;;;;;;6.10;3.93;;;25.00;49.20;;;;;;4997245;28;20533;-76
2023/09/06 10:26:48;;;;;;;4.93;4.00;;;25.10;50.90;;;;;;5001940;28;20557;-76
2023/09/06 10:29:52;;;;;;;6.00;4.33;;;25.20;48.50;;;;;;4994743;28;20803;-76
2023/09/06 10:32:42;;;;;;;6.20;3.80;;;25.40;43.00;;;;;;4995629;28;20445;-76
2023/09/06 10:35:32;;;;;;;5.60;3.80;;;25.50;43.10;;;;;;4997724;28;20444;-76
2023/09/06 10:38:18;;;;;;;12.40;6.23;;;25.60;45.90;;;;;;4998407;28;20548;-76
2023/09/06 10:41:10;;;;;;;5.43;4.07;;;25.70;46.00;;;;;;5000699;28;20598;-75
2023/09/06 10:44:03;;;;;;;5.43;3.80;;;25.80;43.60;;;;;;4998699;28;20582;-77
2023/09/06 10:46:49;;;;;;;5.10;3.97;;;25.90;42.90;;;;;;5002034;28;21017;-76
2023/09/06 10:49:34;;;;;;;5.20;3.80;;;26.00;40.70;;;;;;4996419;28;20584;-76
2023/09/06 10:52:40;;;;;;;4.50;3.57;;;26.10;37.40;;;;;;4997676;28;20446;-76
2023/09/06 10:55:27;;;;;;;6.53;3.40;;;26.20;40.20;;;;;;5000830;28;20744;-76
2023/09/06 10:58:13;;;;;;;4.80;3.70;;;26.30;31.60;;;;;;4996326;28;20460;-75
2023/09/06 11:01:16;;;;;;;4.87;3.40;;;26.40;30.70;;;;;;4999050;28;20836;-76
2023/09/06 11:04:12;;;;;;;4.20;3.40;;;26.50;30.70;;;;;;4997810;28;20478;-76
2023/09/06 11:06:58;;;;;;;4.13;3.43;;;26.50;27.40;;;;;;4993740;28;20476;-76
2023/09/06 11:09:49;;;;;;;4.50;3.53;;;26.60;31.80;;;;;;4998692;28;20458;-77
2023/09/06 11:12:35;;;;;;;5.87;3.97;;;26.70;32.00;;;;;;4999151;28;20522;-78
2023/09/06 11:15:20;;;;;;;4.30;3.30;;;26.70;29.40;;;;;;4997539;28;21001;-76
2023/09/06 11:18:07;;;;;;;5.20;3.90;;;26.80;30.00;;;;;;4998971;28;20519;-76
2023/09/06 11:20:53;;;;;;;3.93;2.87;;;26.90;27.90;;;;;;5000422;28;20531;-76
2023/09/06 11:23:45;;;;;;;4.10;3.17;;;26.90;25.70;;;;;;4997256;28;20858;-75
2023/09/06 11:26:36;;;;;;;10.07;3.60;;;26.90;26.70;;;;;;4995083;28;20611;-76
2023/09/06 11:29:27;;;;;;;4.20;2.70;;;27.00;25.10;;;;;;4991693;28;20449;-77
2023/09/06 11:32:14;;;;;;;5.70;3.10;;;27.10;26.50;;;;;;4994370;28;21226;-75
2023/09/06 11:34:59;;;;;;;9.10;3.70;;;27.10;25.60;;;;;;4995857;28;20477;-75
2023/09/06 11:37:50;;;;;;;5.00;3.53;;;27.10;28.80;;;;;;4992343;28;20577;-76
2023/09/06 11:40:36;;;;;;;4.73;3.37;;;27.20;24.90;;;;;;4993936;28;20477;-75
2023/09/06 11:43:24;;;;;;;6.40;3.97;;;27.20;26.50;;;;;;4994252;28;20532;-76
2023/09/06 11:46:13;;;;;;;5.80;3.60;;;27.20;24.30;;;;;;4993555;28;21052;-76
2023/09/06 11:49:00;;;;;;;5.07;3.53;;;27.20;25.00;;;;;;4988216;28;21070;-75
2023/09/06 11:51:47;;;;;;;4.93;3.10;;;27.30;23.70;;;;;;4997969;28;21080;-75
2023/09/06 11:54:37;;;;;;;4.53;3.20;;;27.40;25.80;;;;;;4990940;28;21023;-75
2023/09/06 11:57:26;;;;;;;5.83;3.20;;;27.40;23.40;;;;;;4997333;28;20463;-75
2023/09/06 12:00:19;;;;;;;5.10;3.40;;;27.50;24.50;;;;;;4996059;28;20448;-75
2023/09/06 12:03:13;;;;;;;4.90;4.00;;;27.60;24.30;;;;;;4992079;28;20503;-75
2023/09/06 12:06:00;;;;;;;4.33;3.30;;;27.70;22.60;;;;;;4997423;28;20508;-76
2023/09/06 12:08:46;;;;;;;4.17;2.90;;;27.70;22.40;;;;;;4989652;28;20464;-75
2023/09/06 12:11:33;;;;;;;4.00;3.20;;;27.80;21.90;;;;;;4998123;28;20444;-75
2023/09/06 12:14:19;;;;;;;5.17;3.07;;;27.90;20.00;;;;;;4995374;28;20533;-75
2023/09/06 12:17:07;;;;;;;4.03;2.87;;;27.90;20.80;;;;;;4991770;28;20450;-75
2023/09/06 12:19:59;;;;;;;4.73;3.23;;;27.90;20.30;;;;;;4994978;28;21452;-75
2023/09/06 12:22:45;;;;;;;5.90;3.20;;;28.00;23.00;;;;;;4992952;28;20446;-75
2023/09/06 12:25:31;;;;;;;9.70;3.07;;;28.20;21.10;;;;;;4999613;28;20517;-76
2023/09/06 12:28:17;;;;;;;3.80;2.77;;;28.40;22.60;;;;;;5018464;23;20577;-74
2023/09/06 12:31:04;;;;;;;7.73;3.50;;;28.50;21.80;;;;;;5000967;28;20448;-74
2023/09/06 12:33:51;;;;;;;6.73;3.30;;;28.70;21.30;;;;;;5006728;28;20488;-73
2023/09/06 12:36:37;;;;;;;4.13;2.97;;;28.80;18.70;;;;;;5002928;28;20485;-74
2023/09/06 12:39:23;;;;;;;4.00;3.30;;;28.80;18.50;;;;;;4982148;28;21042;-73
2023/09/06 12:42:09;;;;;;;4.27;3.63;;;28.80;19.90;;;;;;4990891;28;20913;-73
2023/09/06 12:44:54;;;;;;;4.47;2.80;;;28.90;22.50;;;;;;4982575;28;21099;-73
2023/09/06 12:47:40;;;;;;;6.07;3.00;;;29.00;16.30;;;;;;4985661;28;20635;-73
2023/09/06 12:50:28;;;;;;;8.17;3.27;;;29.20;18.40;;;;;;4989436;28;21024;-73
2023/09/06 12:53:13;;;;;;;6.30;2.87;;;29.30;16.60;;;;;;4987596;28;20440;-73
2023/09/06 12:55:59;;;;;;;6.97;3.10;;;29.40;17.40;;;;;;4984960;28;21063;-73
2023/09/06 12:58:45;;;;;;;4.50;3.30;;;29.50;18.20;;;;;;4990403;28;20513;-74
2023/09/06 13:01:31;;;;;;;6.00;3.33;;;29.50;16.10;;;;;;4983587;28;21252;-74
2023/09/06 13:04:16;;;;;;;4.70;2.87;;;29.70;19.00;;;;;;4992085;28;20453;-74
2023/09/06 13:07:04;;;;;;;15.40;4.00;;;30.00;16.70;;;;;;4984912;28;21112;-73
2023/09/06 13:09:50;;;;;;;4.70;3.40;;;30.20;16.00;;;;;;4983558;28;20824;-74
2023/09/06 13:12:37;;;;;;;4.80;3.13;;;30.50;17.60;;;;;;4983283;28;20439;-73
2023/09/06 13:15:22;;;;;;;4.20;3.00;;;30.70;16.20;;;;;;4982630;28;20478;-73
2023/09/06 13:18:08;;;;;;;5.50;3.10;;;30.80;15.10;;;;;;4983994;28;20473;-73
2023/09/06 13:20:56;;;;;;;4.00;2.53;;;31.00;15.20;;;;;;4985453;28;20935;-74
2023/09/06 13:23:43;;;;;;;3.37;2.47;;;31.00;15.00;;;;;;4983778;28;20451;-73
2023/09/06 13:26:28;;;;;;;6.20;2.83;;;31.10;14.30;;;;;;4984304;28;20887;-74
2023/09/06 13:29:14;;;;;;;4.77;3.10;;;31.20;15.50;;;;;;4979218;28;20860;-74
2023/09/06 13:32:00;;;;;;;5.30;3.00;;;31.30;13.50;;;;;;4979403;28;20451;-74
2023/09/06 13:34:46;;;;;;;4.97;3.10;;;31.40;12.90;;;;;;4981950;28;20458;-73
2023/09/06 13:37:32;;;;;;;3.80;2.60;;;31.50;14.30;;;;;;4985006;28;20545;-73
2023/09/06 13:40:19;;;;;;;5.40;2.97;;;31.50;13.50;;;;;;4979652;28;20449;-73
2023/09/06 13:43:05;;;;;;;4.40;2.83;;;31.50;13.70;;;;;;4977631;28;20447;-74
2023/09/06 13:45:50;;;;;;;7.40;3.17;;;31.50;12.10;;;;;;4978818;28;21093;-74
2023/09/06 13:48:36;;;;;;;4.87;2.90;;;31.60;12.90;;;;;;4984927;28;20616;-74
2023/09/06 13:51:22;;;;;;;4.33;2.70;;;31.60;13.20;;;;;;4982624;28;20447;-73
2023/09/06 13:54:08;;;;;;;4.43;2.80;;;31.70;11.50;;;;;;4985338;28;20528;-74
2023/09/06 13:56:55;;;;;;;4.43;2.70;;;31.90;13.20;;;;;;4989298;28;20461;-73
2023/09/06 13:59:41;;;;;;;6.03;2.40;;;32.00;11.40;;;;;;4980628;28;20477;-73
2023/09/06 14:02:28;;;;;;;4.90;2.97;;;32.10;10.10;;;;;;4989001;28;20464;-74
2023/09/06 14:05:14;;;;;;;6.30;2.63;;;32.10;11.20;;;;;;4982853;28;20448;-73
2023/09/06 14:07:59;;;;;;;4.90;2.57;;;32.30;11.60;;;;;;4982989;28;20485;-73
2023/09/06 14:10:45;;;;;;;3.20;2.00;;;32.30;11.10;;;;;;4989059;28;20524;-73
2023/09/06 14:13:32;;;;;;;3.80;2.30;;;32.30;11.60;;;;;;4982379;28;20849;-73
2023/09/06 14:16:17;;;;;;;6.33;2.53;;;32.20;11.50;;;;;;4981641;28;20924;-74
2023/09/06 14:19:03;;;;;;;3.97;2.77;;;32.20;9.40;;;;;;4982527;28;20453;-74
2023/09/06 14:21:49;;;;;;;3.90;2.50;;;32.10;10.10;;;;;;4981089;28;20551;-74
2023/09/06 14:24:35;;;;;;;5.27;2.23;;;32.20;9.60;;;;;;4987882;28;20825;-73
2023/09/06 14:27:20;;;;;;;5.20;3.00;;;32.10;10.80;;;;;;4984412;28;20488;-74